createdAt,value
2018-12-15T00:01:18.127Z,15.43
2018-12-15T00:03:47.013Z,15.33
2018-12-15T00:06:16.197Z,15.80
2018-12-15T00:08:45.167Z,15.23
2018-12-15T00:11:13.960Z,15.83
2018-12-15T00:13:42.738Z,15.67
2018-12-15T00:16:11.556Z,15.67
2018-12-15T00:18:40.760Z,14.53
2018-12-15T00:21:09.657Z,15.10
2018-12-15T00:23:38.473Z,15.03
2018-12-15T00:26:07.263Z,15.63
2018-12-15T00:28:36.126Z,15.32
2018-12-15T00:31:04.962Z,15.40
2018-12-15T00:33:33.774Z,15.57
2018-12-15T00:36:02.560Z,15.47
2018-12-15T00:38:31.505Z,15.75
2018-12-15T00:41:00.283Z,15.10
2018-12-15T00:43:29.070Z,15.60
2018-12-15T00:45:57.899Z,16.27
2018-12-15T00:48:26.679Z,15.72
2018-12-15T00:50:55.482Z,16.13
2018-12-15T00:53:24.294Z,16.10
2018-12-15T00:55:53.080Z,15.57
2018-12-15T00:58:21.910Z,15.27
2018-12-15T01:00:50.735Z,15.83
2018-12-15T01:03:19.995Z,16.43
2018-12-15T01:05:48.893Z,15.50
2018-12-15T01:08:17.702Z,14.73
2018-12-15T01:10:46.868Z,13.97
2018-12-15T01:13:16.988Z,13.13
2018-12-15T01:15:46.107Z,13.00
2018-12-15T01:18:15.590Z,11.93
2018-12-15T01:20:44.467Z,13.33
2018-12-15T01:23:13.326Z,12.77
2018-12-15T01:25:42.437Z,12.00
2018-12-15T01:28:11.230Z,11.73
2018-12-15T01:30:40.055Z,11.37
2018-12-15T01:33:08.843Z,11.57
2018-12-15T01:35:37.644Z,11.10
2018-12-15T01:38:06.455Z,10.80
2018-12-15T01:40:35.242Z,11.25
2018-12-15T01:43:04.038Z,12.30
2018-12-15T01:45:32.834Z,12.20
2018-12-15T01:48:01.794Z,10.97
2018-12-15T01:50:30.578Z,12.00
2018-12-15T01:52:59.378Z,11.57
2018-12-15T01:55:28.188Z,11.57
2018-12-15T01:57:57.320Z,11.50
2018-12-15T02:00:26.234Z,11.73
2018-12-15T02:02:55.020Z,12.90
2018-12-15T02:05:23.810Z,12.60
2018-12-15T02:07:53.013Z,12.27
2018-12-15T02:10:22.122Z,11.50
2018-12-15T02:12:50.940Z,11.73
2018-12-15T02:15:19.750Z,11.40
2018-12-15T02:17:48.603Z,11.43
2018-12-15T02:20:17.390Z,10.87
2018-12-15T02:22:46.202Z,10.77
2018-12-15T02:25:15.030Z,10.57
2018-12-15T02:27:43.859Z,10.83
2018-12-15T02:30:12.707Z,11.57
2018-12-15T02:32:41.524Z,11.80
2018-12-15T02:35:10.331Z,11.30
2018-12-15T02:37:39.113Z,11.37
2018-12-15T02:40:07.934Z,10.37
2018-12-15T02:42:36.807Z,11.05
2018-12-15T02:45:05.718Z,11.37
2018-12-15T02:47:41.167Z,11.63
2018-12-15T02:50:05.820Z,12.13
2018-12-15T02:52:34.622Z,11.77
2018-12-15T02:55:03.733Z,11.45
2018-12-15T02:57:32.520Z,12.03
2018-12-15T03:00:01.363Z,12.17
2018-12-15T03:02:30.163Z,11.80
2018-12-15T03:04:59.311Z,12.50
2018-12-15T03:07:28.230Z,12.68
2018-12-15T03:09:57.017Z,12.37
2018-12-15T03:12:25.812Z,10.43
2018-12-15T03:14:54.608Z,12.77
2018-12-15T03:17:23.391Z,12.77
2018-12-15T03:19:52.612Z,11.90
2018-12-15T03:22:21.498Z,11.40
2018-12-15T03:24:50.291Z,11.50
2018-12-15T03:27:19.102Z,10.90
2018-12-15T03:29:47.899Z,11.47
2018-12-15T03:32:16.761Z,12.43
2018-12-15T03:34:45.526Z,10.57
2018-12-15T03:37:14.699Z,11.43
2018-12-15T03:39:43.848Z,10.83
2018-12-15T03:42:12.762Z,10.37
2018-12-15T03:44:41.743Z,11.63
2018-12-15T03:47:10.579Z,12.70
2018-12-15T03:49:39.356Z,11.03
2018-12-15T03:52:08.420Z,11.80
2018-12-15T03:54:37.208Z,10.73
2018-12-15T03:57:05.994Z,11.13
2018-12-15T03:59:34.966Z,10.93
2018-12-15T04:02:03.947Z,10.57
2018-12-15T04:04:33.437Z,11.78
2018-12-15T04:07:02.246Z,11.33
2018-12-15T04:09:31.036Z,12.18
2018-12-15T04:11:59.866Z,11.33
2018-12-15T04:14:28.651Z,11.10
2018-12-15T04:16:57.462Z,10.73
2018-12-15T04:19:26.393Z,10.20
2018-12-15T04:21:59.656Z,11.53
2018-12-15T04:24:28.478Z,10.93
2018-12-15T04:26:57.266Z,11.80
2018-12-15T04:29:26.076Z,11.90
2018-12-15T04:31:55.098Z,10.70
2018-12-15T04:34:24.184Z,12.47
2018-12-15T04:36:53.006Z,12.20
2018-12-15T04:39:21.791Z,11.07
2018-12-15T04:41:50.562Z,12.13
2018-12-15T04:44:20.127Z,11.40
2018-12-15T04:46:49.080Z,11.63
2018-12-15T04:49:17.897Z,11.60
2018-12-15T04:51:46.694Z,11.40
2018-12-15T04:54:15.488Z,12.13
2018-12-15T04:56:44.282Z,12.53
2018-12-15T04:59:13.163Z,11.27
2018-12-15T05:01:42.107Z,12.00
2018-12-15T05:04:10.891Z,10.67
2018-12-15T05:06:39.700Z,11.37
2018-12-15T05:09:08.771Z,11.47
2018-12-15T05:11:37.594Z,11.20
2018-12-15T05:14:06.410Z,12.70
2018-12-15T05:16:35.446Z,11.15
2018-12-15T05:19:04.236Z,11.57
2018-12-15T05:21:33.055Z,10.53
2018-12-15T05:24:01.882Z,12.13
2018-12-15T05:26:30.699Z,11.15
2018-12-15T05:28:59.493Z,11.63
2018-12-15T05:31:28.281Z,10.63
2018-12-15T05:33:57.066Z,12.47
2018-12-15T05:36:25.895Z,11.50
2018-12-15T05:38:54.724Z,10.93
2018-12-15T05:41:23.510Z,11.03
2018-12-15T05:43:52.562Z,13.03
2018-12-15T05:46:21.339Z,11.80
2018-12-15T05:48:50.178Z,11.63
2018-12-15T05:51:19.855Z,11.40
2018-12-15T05:53:48.678Z,12.07
2018-12-15T05:56:17.467Z,11.03
2018-12-15T05:58:46.263Z,11.63
2018-12-15T06:01:15.068Z,11.70
2018-12-15T06:03:43.831Z,11.60
2018-12-15T06:06:12.658Z,11.60
2018-12-15T06:08:41.426Z,11.77
2018-12-15T06:11:10.246Z,10.57
2018-12-15T06:13:39.058Z,10.87
2018-12-15T06:16:07.887Z,11.60
2018-12-15T06:18:36.683Z,10.07
2018-12-15T06:21:05.473Z,11.70
2018-12-15T06:23:34.291Z,11.10
2018-12-15T06:26:03.081Z,11.60
2018-12-15T06:28:31.999Z,10.93
2018-12-15T06:31:00.794Z,12.63
2018-12-15T06:33:29.581Z,11.57
2018-12-15T06:35:58.406Z,11.70
2018-12-15T06:38:27.190Z,11.77
2018-12-15T06:40:56.392Z,11.23
2018-12-15T06:43:25.527Z,10.70
2018-12-15T06:45:54.578Z,10.40
2018-12-15T06:48:23.401Z,11.60
2018-12-15T06:50:52.198Z,11.87
2018-12-15T06:53:21.057Z,10.87
2018-12-15T06:55:49.874Z,9.73
2018-12-15T06:58:19.395Z,11.30
2018-12-15T07:00:48.298Z,9.57
2018-12-15T07:03:17.094Z,11.20
2018-12-15T07:05:46.259Z,11.93
2018-12-15T07:08:15.135Z,10.43
2018-12-15T07:10:43.906Z,11.30
2018-12-15T07:13:12.755Z,12.87
2018-12-15T07:15:41.574Z,11.87
2018-12-15T07:18:10.359Z,11.83
2018-12-15T07:20:39.179Z,10.33
2018-12-15T07:23:07.994Z,12.60
2018-12-15T07:25:37.261Z,12.47
2018-12-15T07:28:06.062Z,10.97
2018-12-15T07:30:35.320Z,11.03
2018-12-15T07:33:04.103Z,11.50
2018-12-15T07:35:32.971Z,11.63
2018-12-15T07:38:01.788Z,9.03
2018-12-15T07:40:30.587Z,11.77
2018-12-15T07:42:59.412Z,10.80
2018-12-15T07:45:28.635Z,11.70
2018-12-15T07:47:57.523Z,11.80
2018-12-15T07:50:26.322Z,11.00
2018-12-15T07:52:55.154Z,11.60
2018-12-15T07:55:23.907Z,11.53
2018-12-15T07:57:52.710Z,11.43
2018-12-15T08:00:21.510Z,10.27
2018-12-15T08:02:50.736Z,11.47
2018-12-15T08:05:20.374Z,13.13
2018-12-15T08:07:49.239Z,12.13
2018-12-15T08:10:22.356Z,11.73
2018-12-15T08:13:00.311Z,11.70
2018-12-15T08:15:29.234Z,12.33
2018-12-15T08:17:58.155Z,11.30
2018-12-15T08:20:26.919Z,11.80
2018-12-15T08:22:55.822Z,12.00
2018-12-15T08:25:24.658Z,12.07
2018-12-15T08:27:53.444Z,11.33
2018-12-15T08:30:22.218Z,11.73
2018-12-15T08:32:51.403Z,12.40
2018-12-15T08:35:20.639Z,11.00
2018-12-15T08:37:49.518Z,13.53
2018-12-15T08:40:19.114Z,14.43
2018-12-15T08:42:47.971Z,12.80
2018-12-15T08:45:16.751Z,13.40
2018-12-15T08:47:45.779Z,14.13
2018-12-15T08:50:14.597Z,13.47
2018-12-15T08:52:43.430Z,12.30
2018-12-15T08:55:12.285Z,12.77
2018-12-15T08:57:43.320Z,11.80
2018-12-15T09:00:12.283Z,11.63
2018-12-15T09:02:41.072Z,12.10
2018-12-15T09:05:10.066Z,12.97
2018-12-15T09:07:38.858Z,13.07
2018-12-15T09:10:07.660Z,10.37
2018-12-15T09:12:36.466Z,12.13
2018-12-15T09:15:05.331Z,11.97
2018-12-15T09:17:34.115Z,11.83
2018-12-15T09:20:03.124Z,12.73
2018-12-15T09:22:32.340Z,13.13
2018-12-15T09:25:01.216Z,13.77
2018-12-15T09:27:30.014Z,12.83
2018-12-15T09:29:58.779Z,12.53
2018-12-15T09:32:27.614Z,11.87
2018-12-15T09:34:56.414Z,11.97
2018-12-15T09:37:25.178Z,12.23
2018-12-15T09:39:54.002Z,11.67
2018-12-15T09:42:22.782Z,11.87
2018-12-15T09:44:51.590Z,12.33
2018-12-15T09:47:20.416Z,12.47
2018-12-15T09:49:49.264Z,12.23
2018-12-15T09:52:18.932Z,12.27
2018-12-15T09:54:47.710Z,13.73
2018-12-15T09:57:16.497Z,12.27
2018-12-15T09:59:45.283Z,12.07
2018-12-15T10:02:14.102Z,12.57
2018-12-15T10:04:43.050Z,12.57
2018-12-15T10:07:11.844Z,11.93
2018-12-15T10:09:40.671Z,11.83
2018-12-15T10:12:09.463Z,13.43
2018-12-15T10:14:38.265Z,14.33
2018-12-15T10:17:07.066Z,13.13
2018-12-15T10:19:35.859Z,13.27
2018-12-15T10:22:04.654Z,13.13
2018-12-15T10:24:33.475Z,12.97
2018-12-15T10:27:02.267Z,14.33
2018-12-15T10:29:36.398Z,11.27
2018-12-15T10:32:10.647Z,15.13
2018-12-15T10:34:39.605Z,14.23
2018-12-15T10:37:08.587Z,13.40
2018-12-15T10:39:37.401Z,15.40
2018-12-15T10:42:06.233Z,15.10
2018-12-15T10:44:35.055Z,14.40
2018-12-15T10:47:03.982Z,14.17
2018-12-15T10:49:32.942Z,14.87
2018-12-15T10:52:01.944Z,14.27
2018-12-15T10:54:30.737Z,14.10
2018-12-15T10:56:59.615Z,13.20
2018-12-15T10:59:28.620Z,14.68
2018-12-15T11:01:57.450Z,14.00
2018-12-15T11:04:26.227Z,14.40
2018-12-15T11:06:55.018Z,12.73
2018-12-15T11:09:23.857Z,13.98
2018-12-15T11:11:52.652Z,13.47
2018-12-15T11:14:21.432Z,15.43
2018-12-15T11:16:50.226Z,13.53
2018-12-15T11:19:19.015Z,14.17
2018-12-15T11:21:48.026Z,14.43
2018-12-15T11:24:16.938Z,14.00
2018-12-15T11:26:45.733Z,15.43
2018-12-15T11:29:14.531Z,15.90
2018-12-15T11:31:43.378Z,13.50
2018-12-15T11:34:12.195Z,15.20
2018-12-15T11:36:41.058Z,15.67
2018-12-15T11:39:09.866Z,14.80
2018-12-15T11:41:38.799Z,16.50
2018-12-15T11:44:07.906Z,16.63
2018-12-15T11:46:36.770Z,12.13
2018-12-15T11:49:05.614Z,13.90
2018-12-15T11:51:34.840Z,14.47
2018-12-15T11:54:03.746Z,14.03
2018-12-15T11:56:32.912Z,14.33
2018-12-15T11:59:01.899Z,15.60
2018-12-15T12:01:30.906Z,13.70
2018-12-15T12:03:59.687Z,14.60
2018-12-15T12:06:28.471Z,14.20
2018-12-15T12:08:57.268Z,12.97
2018-12-15T12:11:26.111Z,12.50
2018-12-15T12:14:00.325Z,15.10
2018-12-15T12:16:25.907Z,15.63
2018-12-15T12:18:55.284Z,15.23
2018-12-15T12:21:24.106Z,14.10
2018-12-15T12:23:52.902Z,14.90
2018-12-15T12:26:22.127Z,14.57
2018-12-15T12:28:51.026Z,15.13
2018-12-15T12:31:19.956Z,14.63
2018-12-15T12:33:49.084Z,15.17
2018-12-15T12:36:18.946Z,14.93
2018-12-15T12:38:47.783Z,14.93
2018-12-15T12:41:16.618Z,15.77
2018-12-15T12:43:45.755Z,15.53
2018-12-15T12:46:14.947Z,14.77
2018-12-15T12:48:43.747Z,14.67
2018-12-15T12:51:12.596Z,14.63
2018-12-15T12:53:41.418Z,12.30
2018-12-15T12:56:10.265Z,14.13
2018-12-15T12:58:39.027Z,16.37
2018-12-15T13:01:07.814Z,14.77
2018-12-15T13:03:36.661Z,14.97
2018-12-15T13:06:06.359Z,13.57
2018-12-15T13:08:36.559Z,17.10
2018-12-15T13:11:05.393Z,16.53
2018-12-15T13:13:34.294Z,17.30
2018-12-15T13:16:03.066Z,15.80
2018-12-15T13:18:31.907Z,16.07
2018-12-15T13:21:00.714Z,17.77
2018-12-15T13:23:29.498Z,15.97
2018-12-15T13:25:58.319Z,15.83
2018-12-15T13:28:27.170Z,17.03
2018-12-15T13:30:59.395Z,16.77
2018-12-15T13:33:32.355Z,17.03
2018-12-15T13:36:01.282Z,17.53
2018-12-15T13:38:30.147Z,18.57
2018-12-15T13:41:01.311Z,16.30
2018-12-15T13:43:30.235Z,18.13
2018-12-15T13:45:59.073Z,19.50
2018-12-15T13:48:27.918Z,15.57
2018-12-15T13:50:56.708Z,20.13
2018-12-15T13:53:25.537Z,15.73
2018-12-15T13:55:54.355Z,17.43
2018-12-15T13:58:23.161Z,19.33
2018-12-15T14:00:51.990Z,18.40
2018-12-15T14:03:20.958Z,18.43
2018-12-15T14:05:49.854Z,17.57
2018-12-15T14:08:19.008Z,17.23
2018-12-15T14:10:47.959Z,17.40
2018-12-15T14:13:16.782Z,18.03
2018-12-15T14:15:45.642Z,17.87
2018-12-15T14:18:14.791Z,16.47
2018-12-15T14:20:43.599Z,17.90
2018-12-15T14:23:12.586Z,17.13
2018-12-15T14:25:41.367Z,18.90
2018-12-15T14:28:10.285Z,18.63
2018-12-15T14:30:39.114Z,17.07
2018-12-15T14:33:07.892Z,17.97
2018-12-15T14:35:36.698Z,17.73
2018-12-15T14:38:05.510Z,19.53
2018-12-15T14:40:34.379Z,15.90
2018-12-15T14:43:03.198Z,18.80
2018-12-15T14:45:31.993Z,19.20
2018-12-15T14:48:00.851Z,18.67
2018-12-15T14:50:29.666Z,16.55
2018-12-15T14:52:58.530Z,18.50
2018-12-15T14:55:27.427Z,16.80
2018-12-15T14:57:56.858Z,19.33
2018-12-15T15:00:25.682Z,17.93
2018-12-15T15:02:54.539Z,18.73
2018-12-15T15:05:23.329Z,18.33
2018-12-15T15:07:52.347Z,18.03
2018-12-15T15:10:21.123Z,18.27
2018-12-15T15:12:50.002Z,19.77
2018-12-15T15:15:18.831Z,16.47
2018-12-15T15:17:47.650Z,18.23
2018-12-15T15:20:16.675Z,16.87
2018-12-15T15:22:45.538Z,15.50
2018-12-15T15:25:14.319Z,17.37
2018-12-15T15:27:43.759Z,15.80
2018-12-15T15:30:12.719Z,17.60
2018-12-15T15:32:42.252Z,19.00
2018-12-15T15:35:11.182Z,17.30
2018-12-15T15:37:40.034Z,16.30
2018-12-15T15:40:08.966Z,15.90
2018-12-15T15:42:37.832Z,15.07
2018-12-15T15:45:06.799Z,16.47
2018-12-15T15:47:35.582Z,15.53
2018-12-15T15:50:04.653Z,12.37
2018-12-15T15:52:33.475Z,10.73
2018-12-15T15:55:02.300Z,14.23
2018-12-15T15:57:31.131Z,13.38
2018-12-15T15:59:59.918Z,13.53
2018-12-15T16:02:29.123Z,14.83
2018-12-15T16:04:58.012Z,15.47
2018-12-15T16:07:26.808Z,13.43
2018-12-15T16:09:55.615Z,15.00
2018-12-15T16:12:24.454Z,12.17
2018-12-15T16:14:53.223Z,10.30
2018-12-15T16:17:22.084Z,11.10
2018-12-15T16:19:50.894Z,12.20
2018-12-15T16:22:20.235Z,9.75
2018-12-15T16:24:49.417Z,10.83
2018-12-15T16:27:18.339Z,9.27
2018-12-15T16:29:47.186Z,11.03
2018-12-15T16:32:16.024Z,11.83
2018-12-15T16:34:44.998Z,11.40
2018-12-15T16:37:13.854Z,10.80
2018-12-15T16:39:42.611Z,12.40
2018-12-15T16:42:11.449Z,12.27
2018-12-15T16:44:40.326Z,11.07
2018-12-15T16:47:09.180Z,11.83
2018-12-15T16:49:38.104Z,10.75
2018-12-15T16:52:07.047Z,10.00
2018-12-15T16:54:35.917Z,10.10
2018-12-15T16:57:04.814Z,11.50
2018-12-15T16:59:33.589Z,13.27
2018-12-15T17:02:02.475Z,10.73
2018-12-15T17:04:31.301Z,10.40
2018-12-15T17:07:00.199Z,11.13
2018-12-15T17:09:29.485Z,9.83
2018-12-15T17:11:58.315Z,10.03
2018-12-15T17:14:27.103Z,8.70
2018-12-15T17:16:55.942Z,9.63
2018-12-15T17:19:24.717Z,8.60
2018-12-15T17:21:53.560Z,10.30
2018-12-15T17:24:22.355Z,11.33
2018-12-15T17:26:51.250Z,10.23
2018-12-15T17:29:20.095Z,9.50
2018-12-15T17:31:48.927Z,11.07
2018-12-15T17:34:17.713Z,10.70
2018-12-15T17:36:46.507Z,11.97
2018-12-15T17:39:15.435Z,9.40
2018-12-15T17:41:44.274Z,11.27
2018-12-15T17:44:13.148Z,9.57
2018-12-15T17:46:41.982Z,10.40
2018-12-15T17:49:11.143Z,10.30
2018-12-15T17:51:40.108Z,9.40
2018-12-15T17:54:08.901Z,9.33
2018-12-15T17:56:37.746Z,10.03
2018-12-15T17:59:06.523Z,8.85
2018-12-15T18:01:35.354Z,9.47
2018-12-15T18:04:04.182Z,10.03
2018-12-15T18:06:33.008Z,9.40
2018-12-15T18:09:01.837Z,10.73
2018-12-15T18:11:30.619Z,8.47
2018-12-15T18:13:59.515Z,8.00
2018-12-15T18:16:28.328Z,9.77
2018-12-15T18:18:57.362Z,10.07
2018-12-15T18:21:26.197Z,7.87
2018-12-15T18:23:55.000Z,8.97
2018-12-15T18:26:23.898Z,8.73
2018-12-15T18:28:52.718Z,8.97
2018-12-15T18:31:21.692Z,9.00
2018-12-15T18:33:50.883Z,8.47
2018-12-15T18:36:19.890Z,9.17
2018-12-15T18:38:48.862Z,7.03
2018-12-15T18:41:18.172Z,9.07
2018-12-15T18:43:47.016Z,9.80
2018-12-15T18:46:15.830Z,10.10
2018-12-15T18:48:44.603Z,10.63
2018-12-15T18:51:16.335Z,10.57
2018-12-15T18:53:44.338Z,9.90
2018-12-15T18:56:13.171Z,9.73
2018-12-15T18:58:42.110Z,9.50
2018-12-15T19:01:11.050Z,11.17
2018-12-15T19:03:39.874Z,11.00
2018-12-15T19:06:08.786Z,10.10
2018-12-15T19:08:37.610Z,10.97
2018-12-15T19:11:06.446Z,10.00
2018-12-15T19:13:35.214Z,9.75
2018-12-15T19:16:04.054Z,7.77
2018-12-15T19:18:32.908Z,8.30
2018-12-15T19:21:01.827Z,8.27
2018-12-15T19:23:30.588Z,7.67
2018-12-15T19:25:59.456Z,7.90
2018-12-15T19:28:28.282Z,8.13
2018-12-15T19:31:03.571Z,7.97
2018-12-15T19:33:32.363Z,7.80
2018-12-15T19:36:01.267Z,7.77
2018-12-15T19:38:30.123Z,7.25
2018-12-15T19:40:58.904Z,8.87
2018-12-15T19:43:27.700Z,8.80
2018-12-15T19:45:56.495Z,8.50
2018-12-15T19:48:25.346Z,8.77
2018-12-15T19:50:54.121Z,8.05
2018-12-15T19:53:22.918Z,9.13
2018-12-15T19:55:51.712Z,7.57
2018-12-15T19:58:20.666Z,9.20
2018-12-15T20:00:49.484Z,7.47
2018-12-15T20:03:19.009Z,9.07
2018-12-15T20:05:47.855Z,7.20
2018-12-15T20:08:16.690Z,6.13
2018-12-15T20:10:45.470Z,6.03
2018-12-15T20:13:14.298Z,6.33
2018-12-15T20:15:43.206Z,6.60
2018-12-15T20:18:12.003Z,6.17
2018-12-15T20:23:43.851Z,6.03
2018-12-15T20:26:12.659Z,6.57
2018-12-15T20:28:41.497Z,7.28
2018-12-15T20:31:10.275Z,5.17
2018-12-15T20:33:39.149Z,5.57
2018-12-15T20:36:07.955Z,5.47
2018-12-15T20:38:36.833Z,5.80
2018-12-15T20:41:05.639Z,6.20
2018-12-15T20:43:34.470Z,6.00
2018-12-15T20:46:03.431Z,5.90
2018-12-15T20:48:32.278Z,5.03
2018-12-15T20:51:01.542Z,4.17
2018-12-15T20:53:30.557Z,6.62
2018-12-15T20:55:59.839Z,5.63
2018-12-15T20:58:28.755Z,5.70
2018-12-15T21:00:57.989Z,7.30
2018-12-15T21:03:26.922Z,4.80
2018-12-15T21:05:56.101Z,4.97
2018-12-15T21:08:25.744Z,5.47
2018-12-15T21:10:54.828Z,7.00
2018-12-15T21:13:23.765Z,5.23
2018-12-15T21:15:56.366Z,5.53
2018-12-15T21:18:25.291Z,5.23
2018-12-15T21:20:54.204Z,5.77
2018-12-15T21:23:23.517Z,5.27
2018-12-15T21:25:52.375Z,5.30
2018-12-15T21:28:21.267Z,5.17
2018-12-15T21:30:50.455Z,5.33
2018-12-15T21:33:19.350Z,5.60
2018-12-15T21:35:48.394Z,6.50
2018-12-15T21:38:17.263Z,6.80
2018-12-15T21:40:46.325Z,7.10
2018-12-15T21:43:15.284Z,6.90
2018-12-15T21:45:44.495Z,6.23
2018-12-15T21:48:14.124Z,6.83
2018-12-15T21:50:43.166Z,5.93
2018-12-15T21:53:12.157Z,5.70
2018-12-15T21:55:41.195Z,5.87
2018-12-15T21:58:10.379Z,5.20
2018-12-15T22:00:39.534Z,6.50
2018-12-15T22:03:08.415Z,4.80
2018-12-15T22:05:37.812Z,5.80
2018-12-15T22:08:07.151Z,4.90
2018-12-15T22:10:36.193Z,5.43
2018-12-15T22:13:05.473Z,4.47
2018-12-15T22:15:34.335Z,5.10
2018-12-15T22:18:03.463Z,4.50
2018-12-15T22:20:33.236Z,4.47
2018-12-15T22:23:02.525Z,4.97
2018-12-15T22:25:31.864Z,4.70
2018-12-15T22:28:01.207Z,4.30
2018-12-15T22:30:30.480Z,4.80
2018-12-15T22:32:59.456Z,4.63
2018-12-15T22:35:28.687Z,4.70
2018-12-15T22:37:57.934Z,4.40
2018-12-15T22:40:26.826Z,4.40
2018-12-15T22:42:55.614Z,3.97
2018-12-15T22:45:24.400Z,3.97
2018-12-15T22:47:53.237Z,4.20
2018-12-15T22:50:21.999Z,4.23
2018-12-15T22:52:51.171Z,5.17
2018-12-15T22:55:21.468Z,4.47
2018-12-15T22:57:50.730Z,3.83
2018-12-15T23:00:20.021Z,3.80
2018-12-15T23:02:49.375Z,4.77
2018-12-15T23:05:18.283Z,4.00
2018-12-15T23:07:47.553Z,3.47
2018-12-15T23:10:16.450Z,4.43
2018-12-15T23:12:45.851Z,4.93
2018-12-15T23:15:15.113Z,4.20
2018-12-15T23:17:44.416Z,4.00
2018-12-15T23:20:13.299Z,4.27
2018-12-15T23:22:42.080Z,5.37
2018-12-15T23:25:10.918Z,3.77
2018-12-15T23:27:40.051Z,4.13
2018-12-15T23:30:09.776Z,4.30
2018-12-15T23:32:39.079Z,3.65
2018-12-15T23:35:08.507Z,4.27
2018-12-15T23:37:37.732Z,3.60
2018-12-15T23:40:07.275Z,3.87
2018-12-15T23:42:36.162Z,3.43
2018-12-15T23:45:06.606Z,3.87
2018-12-15T23:47:35.510Z,3.27
2018-12-15T23:50:05.034Z,2.93
2018-12-15T23:52:34.295Z,3.53
2018-12-15T23:55:03.563Z,3.37
2018-12-15T23:57:32.824Z,3.07
